createdAt,value
2022-08-05T00:00:18.334Z,5.57
2022-08-05T00:02:50.471Z,5.00
2022-08-05T00:05:27.120Z,5.07
2022-08-05T00:08:34.169Z,4.90
2022-08-05T00:10:56.575Z,5.67
2022-08-05T00:13:38.383Z,6.50
2022-08-05T00:16:12.540Z,7.03
2022-08-05T00:18:42.734Z,5.07
2022-08-05T00:21:12.406Z,5.10
2022-08-05T00:23:46.044Z,4.90
2022-08-05T00:26:16.387Z,4.83
2022-08-05T00:28:45.788Z,5.00
2022-08-05T00:31:13.406Z,6.40
2022-08-05T00:34:55.424Z,5.60
2022-08-05T00:37:11.368Z,5.37
2022-08-05T00:39:14.406Z,5.73
2022-08-05T00:41:55.638Z,6.47
2022-08-05T00:44:30.826Z,5.70
2022-08-05T00:47:02.024Z,5.60
2022-08-05T00:49:32.422Z,6.50
2022-08-05T00:52:00.265Z,7.47
2022-08-05T00:54:28.185Z,6.43
2022-08-05T00:56:57.159Z,6.27
2022-08-05T00:59:24.002Z,6.40
2022-08-05T01:01:51.432Z,5.90
2022-08-05T01:04:20.150Z,7.30
2022-08-05T01:06:53.923Z,7.67
2022-08-05T01:09:22.693Z,5.63
2022-08-05T01:11:53.633Z,5.57
2022-08-05T01:14:37.554Z,6.03
2022-08-05T01:17:14.577Z,5.77
2022-08-05T01:20:06.162Z,5.30
2022-08-05T01:23:01.107Z,6.57
2022-08-05T01:26:08.490Z,6.10
2022-08-05T01:28:48.785Z,5.80
2022-08-05T01:31:21.047Z,6.57
2022-08-05T01:33:55.438Z,5.33
2022-08-05T01:36:29.089Z,6.53
2022-08-05T01:39:01.019Z,7.80
2022-08-05T01:41:32.504Z,5.63
2022-08-05T01:44:02.084Z,8.90
2022-08-05T01:46:42.191Z,8.13
2022-08-05T01:49:23.918Z,9.27
2022-08-05T01:51:58.354Z,9.57
2022-08-05T01:54:30.072Z,10.60
2022-08-05T01:58:10.382Z,10.87
2022-08-05T01:59:48.294Z,9.97
2022-08-05T02:02:17.981Z,9.40
2022-08-05T02:04:49.705Z,10.53
2022-08-05T02:07:21.855Z,10.00
2022-08-05T02:09:51.006Z,11.13
2022-08-05T02:12:32.753Z,7.63
2022-08-05T02:15:13.866Z,8.20
2022-08-05T02:18:32.235Z,10.93
2022-08-05T02:20:52.525Z,11.60
2022-08-05T02:23:24.185Z,10.80
2022-08-05T02:25:53.482Z,9.17
2022-08-05T02:28:29.168Z,8.23
2022-08-05T02:31:14.825Z,9.30
2022-08-05T02:33:48.607Z,9.60
2022-08-05T02:36:27.264Z,9.83
2022-08-05T02:38:57.566Z,9.23
2022-08-05T02:41:28.290Z,9.83
2022-08-05T02:44:12.238Z,9.67
2022-08-05T02:46:53.835Z,10.10
2022-08-05T02:49:35.680Z,11.83
2022-08-05T02:52:07.903Z,11.10
2022-08-05T02:54:37.648Z,12.43
2022-08-05T02:58:10.664Z,11.83
2022-08-05T03:00:00.028Z,9.00
2022-08-05T03:02:36.730Z,9.10
2022-08-05T03:05:06.914Z,9.10
2022-08-05T03:07:59.248Z,11.93
2022-08-05T03:10:24.855Z,12.90
2022-08-05T03:12:54.189Z,8.93
2022-08-05T03:15:23.586Z,8.87
2022-08-05T03:17:54.071Z,11.50
2022-08-05T03:20:23.692Z,7.60
2022-08-05T03:22:51.388Z,12.00
2022-08-05T03:25:32.462Z,9.07
2022-08-05T03:28:03.634Z,6.57
2022-08-05T03:30:34.672Z,9.73
2022-08-05T03:33:06.099Z,7.80
2022-08-05T03:35:33.687Z,10.70
2022-08-05T03:38:02.552Z,7.47
2022-08-05T03:40:32.300Z,9.33
2022-08-05T03:43:01.416Z,8.60
2022-08-05T03:45:58.216Z,6.83
2022-08-05T03:48:28.176Z,7.67
2022-08-05T03:52:37.321Z,8.97
2022-08-05T03:55:51.763Z,7.43
2022-08-05T03:56:46.885Z,7.30
2022-08-05T03:59:46.582Z,7.80
2022-08-05T04:02:17.613Z,7.03
2022-08-05T04:05:05.763Z,7.13
2022-08-05T04:07:57.247Z,7.60
2022-08-05T04:10:33.276Z,8.17
2022-08-05T04:13:05.414Z,7.37
2022-08-05T04:15:35.877Z,7.53
2022-08-05T04:18:07.255Z,7.93
2022-08-05T04:20:36.560Z,8.80
2022-08-05T04:23:03.678Z,6.63
2022-08-05T04:25:57.900Z,6.40
2022-08-05T04:28:18.300Z,9.07
2022-08-05T04:30:45.953Z,7.93
2022-08-05T04:33:13.670Z,7.13
2022-08-05T04:36:11.382Z,7.17
2022-08-05T04:38:39.661Z,7.73
2022-08-05T04:41:09.649Z,7.20
2022-08-05T04:43:40.679Z,8.90
2022-08-05T04:46:15.190Z,11.70
2022-08-05T04:48:57.961Z,8.37
2022-08-05T04:51:25.734Z,7.40
2022-08-05T04:53:57.448Z,7.30
2022-08-05T04:56:32.913Z,6.60
2022-08-05T04:59:21.491Z,7.80
2022-08-05T05:02:35.083Z,7.23
2022-08-05T05:04:38.334Z,6.87
2022-08-05T05:07:09.424Z,9.63
2022-08-05T05:09:37.387Z,7.13
2022-08-05T05:12:06.324Z,6.37
2022-08-05T05:14:36.248Z,6.70
2022-08-05T05:17:03.719Z,6.40
2022-08-05T05:19:37.187Z,8.63
2022-08-05T05:22:24.395Z,9.20
2022-08-05T05:24:58.354Z,16.13
2022-08-05T05:27:45.911Z,7.43
2022-08-05T05:30:29.542Z,10.20
2022-08-05T05:33:09.057Z,13.27
2022-08-05T05:35:46.733Z,8.17
2022-08-05T05:38:22.628Z,8.93
2022-08-05T05:40:57.591Z,7.30
2022-08-05T05:43:54.828Z,5.60
2022-08-05T05:46:15.958Z,10.73
2022-08-05T05:48:46.315Z,5.90
2022-08-05T05:51:22.367Z,7.63
2022-08-05T05:53:57.747Z,8.03
2022-08-05T05:56:32.782Z,5.93
2022-08-05T05:59:06.374Z,7.60
2022-08-05T06:01:57.035Z,5.87
2022-08-05T06:04:25.286Z,5.97
2022-08-05T06:06:52.188Z,6.53
2022-08-05T06:09:25.783Z,8.23
2022-08-05T06:12:03.298Z,8.33
2022-08-05T06:14:34.852Z,7.00
2022-08-05T06:17:22.282Z,6.13
2022-08-05T06:19:57.190Z,5.57
2022-08-05T06:22:29.551Z,5.40
2022-08-05T06:24:56.718Z,8.20
2022-08-05T06:28:10.905Z,9.77
2022-08-05T06:30:16.789Z,6.60
2022-08-05T06:32:48.189Z,5.87
2022-08-05T06:36:03.788Z,6.73
2022-08-05T06:38:11.743Z,6.63
2022-08-05T06:40:44.358Z,9.30
2022-08-05T06:43:58.297Z,4.27
2022-08-05T06:46:06.707Z,4.00
2022-08-05T06:48:53.075Z,4.07
2022-08-05T06:51:29.084Z,6.13
2022-08-05T06:53:58.958Z,4.03
2022-08-05T06:56:27.041Z,3.73
2022-08-05T06:58:57.503Z,4.47
2022-08-05T07:01:27.759Z,3.70
2022-08-05T07:04:01.302Z,3.60
2022-08-05T07:06:29.333Z,4.17
2022-08-05T07:08:59.011Z,5.00
2022-08-05T07:11:28.628Z,4.40
2022-08-05T07:14:15.519Z,4.90
2022-08-05T07:18:08.177Z,3.57
2022-08-05T07:22:29.172Z,5.63
2022-08-05T07:24:59.272Z,5.07
2022-08-05T07:27:26.185Z,5.03
2022-08-05T07:30:23.827Z,3.83
2022-08-05T07:32:44.092Z,7.17
2022-08-05T07:35:55.801Z,4.53
2022-08-05T07:37:59.438Z,4.57
2022-08-05T07:40:33.044Z,4.50
2022-08-05T07:43:04.767Z,5.70
2022-08-05T07:45:56.979Z,7.90
2022-08-05T07:49:02.194Z,6.10
2022-08-05T07:51:23.289Z,4.60
2022-08-05T07:53:59.182Z,4.20
2022-08-05T07:56:59.791Z,3.50
2022-08-05T07:59:15.835Z,5.87
2022-08-05T08:01:52.220Z,3.40
2022-08-05T08:04:38.065Z,3.60
2022-08-05T08:07:07.102Z,4.10
2022-08-05T08:09:35.034Z,5.27
2022-08-05T08:12:13.592Z,4.63
2022-08-05T08:14:47.128Z,4.30
2022-08-05T08:17:16.188Z,4.83
2022-08-05T08:20:22.114Z,4.53
2022-08-05T08:22:32.222Z,4.13
2022-08-05T08:25:02.799Z,3.77
2022-08-05T08:27:40.138Z,3.83
2022-08-05T08:30:29.414Z,6.17
2022-08-05T08:33:04.520Z,4.07
2022-08-05T08:35:35.226Z,3.70
2022-08-05T08:38:08.586Z,4.97
2022-08-05T08:40:39.781Z,4.83
2022-08-05T08:44:54.731Z,3.30
2022-08-05T08:45:55.168Z,6.20
2022-08-05T08:48:41.617Z,3.13
2022-08-05T08:52:01.889Z,6.67
2022-08-05T08:53:57.117Z,4.50
2022-08-05T08:56:27.198Z,5.93
2022-08-05T08:58:54.821Z,4.23
2022-08-05T09:01:25.813Z,3.47
2022-08-05T09:03:58.339Z,4.40
2022-08-05T09:06:29.818Z,6.70
2022-08-05T09:09:00.011Z,6.27
2022-08-05T09:11:52.711Z,5.37
2022-08-05T09:14:58.375Z,5.70
2022-08-05T09:17:02.562Z,4.77
2022-08-05T09:19:36.214Z,5.67
2022-08-05T09:22:23.426Z,5.27
2022-08-05T09:24:58.491Z,4.43
2022-08-05T09:28:04.384Z,4.40
2022-08-05T09:30:23.422Z,6.27
2022-08-05T09:32:50.822Z,6.03
2022-08-05T09:35:26.632Z,4.20
2022-08-05T09:38:16.986Z,5.67
2022-08-05T09:40:52.022Z,4.73
2022-08-05T09:43:41.830Z,4.83
2022-08-05T09:46:28.956Z,3.30
2022-08-05T09:49:06.987Z,4.93
2022-08-05T09:51:38.179Z,5.23
2022-08-05T09:54:08.598Z,3.63
2022-08-05T09:56:38.053Z,5.57
2022-08-05T09:59:11.268Z,5.03
2022-08-05T10:01:46.506Z,4.50
2022-08-05T10:04:16.063Z,4.63
2022-08-05T10:06:59.231Z,8.70
2022-08-05T10:09:28.197Z,12.93
2022-08-05T10:12:31.697Z,5.27
2022-08-05T10:15:20.990Z,6.10
2022-08-05T10:18:12.770Z,3.97
2022-08-05T10:20:49.609Z,5.30
2022-08-05T10:23:33.960Z,7.57
2022-08-05T10:26:08.093Z,5.37
2022-08-05T10:28:43.876Z,5.73
2022-08-05T10:32:53.843Z,4.00
2022-08-05T10:34:00.685Z,6.20
2022-08-05T10:36:28.221Z,4.70
2022-08-05T10:39:02.050Z,3.70
2022-08-05T10:41:47.027Z,5.97
2022-08-05T10:44:19.005Z,6.07
2022-08-05T10:46:50.859Z,3.40
2022-08-05T10:49:27.414Z,4.60
2022-08-05T10:52:03.341Z,3.70
2022-08-05T10:55:02.097Z,5.50
2022-08-05T10:57:32.326Z,3.70
2022-08-05T11:00:20.732Z,5.37
2022-08-05T11:03:23.915Z,4.17
2022-08-05T11:06:05.281Z,4.60
2022-08-05T11:08:37.239Z,5.33
2022-08-05T11:11:52.675Z,4.67
2022-08-05T11:17:57.667Z,6.83
2022-08-05T11:20:44.325Z,4.33
2022-08-05T11:24:05.601Z,3.40
2022-08-05T11:26:29.223Z,3.97
2022-08-05T11:29:06.979Z,5.80
2022-08-05T11:31:57.045Z,3.20
2022-08-05T11:34:51.144Z,3.37
2022-08-05T11:38:26.248Z,3.70
2022-08-05T11:41:00.817Z,4.30
2022-08-05T11:44:04.602Z,3.90
2022-08-05T11:46:32.677Z,6.43
2022-08-05T11:49:02.066Z,3.57
2022-08-05T11:51:44.186Z,4.67
2022-08-05T11:54:33.341Z,3.30
2022-08-05T11:57:08.430Z,2.60
2022-08-05T11:59:50.759Z,3.33
2022-08-05T12:02:30.616Z,4.20
2022-08-05T12:05:07.471Z,4.50
2022-08-05T12:08:08.220Z,3.57
2022-08-05T12:10:38.476Z,4.40
2022-08-05T12:13:28.118Z,4.77
2022-08-05T12:16:18.880Z,4.07
2022-08-05T12:18:48.663Z,4.47
2022-08-05T12:21:24.123Z,6.73
2022-08-05T12:24:04.902Z,5.10
2022-08-05T12:26:38.685Z,5.27
2022-08-05T12:29:09.422Z,5.53
2022-08-05T12:31:46.160Z,4.80
2022-08-05T12:34:20.560Z,4.20
2022-08-05T12:36:52.398Z,4.17
2022-08-05T12:39:19.365Z,4.87
2022-08-05T12:41:46.581Z,3.60
2022-08-05T12:44:28.443Z,3.70
2022-08-05T12:47:00.600Z,3.50
2022-08-05T12:50:04.782Z,5.10
2022-08-05T12:52:39.230Z,3.30
2022-08-05T12:55:25.368Z,3.43
2022-08-05T12:58:38.494Z,3.70
2022-08-05T13:02:04.443Z,3.90
2022-08-05T13:03:42.431Z,3.40
2022-08-05T13:06:17.506Z,3.23
2022-08-05T13:08:51.434Z,2.90
2022-08-05T13:12:01.326Z,3.17
2022-08-05T13:14:35.888Z,3.57
2022-08-05T13:17:32.042Z,3.03
2022-08-05T13:20:24.159Z,3.90
2022-08-05T13:22:53.581Z,3.77
2022-08-05T13:25:21.905Z,3.40
2022-08-05T13:27:51.815Z,3.57
2022-08-05T13:30:36.149Z,3.67
2022-08-05T13:33:06.055Z,2.80
2022-08-05T13:35:47.277Z,3.13
2022-08-05T13:38:30.636Z,4.17
2022-08-05T13:41:01.430Z,3.40
2022-08-05T13:43:44.853Z,3.50
2022-08-05T13:46:16.525Z,3.50
2022-08-05T13:49:02.917Z,3.37
2022-08-05T13:51:40.202Z,3.63
2022-08-05T13:54:12.343Z,3.47
2022-08-05T13:56:45.381Z,4.73
2022-08-05T13:59:21.138Z,4.57
2022-08-05T14:01:57.826Z,3.50
2022-08-05T14:04:51.441Z,3.43
2022-08-05T14:07:55.731Z,4.63
2022-08-05T14:10:18.364Z,3.77
2022-08-05T14:12:54.919Z,3.20
2022-08-05T14:16:06.817Z,4.60
2022-08-05T14:18:17.680Z,3.80
2022-08-05T14:20:47.979Z,4.63
2022-08-05T14:23:23.964Z,3.50
2022-08-05T14:25:54.119Z,4.33
2022-08-05T14:28:27.053Z,3.60
2022-08-05T14:30:55.257Z,3.83
2022-08-05T14:33:23.303Z,3.57
2022-08-05T14:35:53.929Z,4.73
2022-08-05T14:38:32.064Z,3.47
2022-08-05T14:41:06.693Z,4.53
2022-08-05T14:44:01.538Z,4.23
2022-08-05T14:46:28.131Z,3.93
2022-08-05T14:48:59.460Z,3.30
2022-08-05T14:51:31.260Z,4.27
2022-08-05T14:54:26.274Z,4.50
2022-08-05T14:56:48.982Z,3.50
2022-08-05T14:59:18.464Z,4.00
2022-08-05T15:01:49.623Z,3.90
2022-08-05T15:04:22.451Z,3.50
2022-08-05T15:06:51.314Z,3.77
2022-08-05T15:09:52.561Z,4.03
2022-08-05T15:12:09.023Z,3.70
2022-08-05T15:14:48.079Z,4.70
2022-08-05T15:17:46.749Z,3.90
2022-08-05T15:20:05.440Z,3.80
2022-08-05T15:22:32.767Z,4.40
2022-08-05T15:24:59.686Z,4.83
2022-08-05T15:27:32.184Z,4.20
2022-08-05T15:30:03.359Z,5.00
2022-08-05T15:32:30.316Z,5.40
2022-08-05T15:34:58.529Z,6.37
2022-08-05T15:38:32.532Z,4.60
2022-08-05T15:41:01.991Z,4.30
2022-08-05T15:43:12.569Z,5.47
2022-08-05T15:45:46.804Z,4.63
2022-08-05T15:48:15.213Z,4.47
2022-08-05T15:50:43.586Z,5.13
2022-08-05T15:53:12.693Z,3.97
2022-08-05T15:56:02.986Z,6.03
2022-08-05T15:58:35.588Z,4.93
2022-08-05T16:01:16.699Z,4.50
2022-08-05T16:03:48.457Z,4.87
2022-08-05T16:06:15.880Z,6.60
2022-08-05T16:08:50.327Z,5.53
2022-08-05T16:11:18.591Z,4.80
2022-08-05T16:13:48.432Z,4.40
2022-08-05T16:16:21.223Z,4.80
2022-08-05T16:18:52.911Z,4.67
2022-08-05T16:21:20.751Z,6.10
2022-08-05T16:24:12.906Z,4.30
2022-08-05T16:26:56.217Z,6.63
2022-08-05T16:29:24.886Z,5.23
2022-08-05T16:31:57.329Z,4.20
2022-08-05T16:34:26.278Z,4.43
2022-08-05T16:36:53.938Z,5.83
2022-08-05T16:39:21.253Z,4.73
2022-08-05T16:42:13.717Z,4.43
2022-08-05T16:44:57.098Z,4.17
2022-08-05T16:47:28.868Z,4.10
2022-08-05T16:50:04.174Z,4.60
2022-08-05T16:52:32.607Z,8.67
2022-08-05T16:55:00.604Z,7.00
2022-08-05T16:57:53.215Z,5.57
2022-08-05T17:00:25.756Z,6.77
2022-08-05T17:02:58.259Z,6.10
2022-08-05T17:05:25.131Z,5.23
2022-08-05T17:07:54.581Z,7.80
2022-08-05T17:10:22.117Z,5.27
2022-08-05T17:12:54.816Z,6.80
2022-08-05T17:15:21.930Z,5.40
2022-08-05T17:17:55.101Z,4.63
2022-08-05T17:20:22.379Z,4.33
2022-08-05T17:22:55.447Z,4.10
2022-08-05T17:25:39.480Z,4.07
2022-08-05T17:28:07.706Z,3.07
2022-08-05T17:30:50.699Z,4.03
2022-08-05T17:33:19.936Z,3.47
2022-08-05T17:36:07.769Z,4.20
2022-08-05T17:38:34.294Z,4.97
2022-08-05T17:41:01.974Z,3.00
2022-08-05T17:43:50.611Z,4.03
2022-08-05T17:46:15.730Z,2.90
2022-08-05T17:48:47.734Z,2.97
2022-08-05T17:51:21.428Z,2.97
2022-08-05T17:53:50.894Z,2.30
2022-08-05T17:56:22.626Z,2.23
2022-08-05T17:58:50.138Z,1.93
2022-08-05T18:01:19.153Z,1.60
2022-08-05T18:03:58.626Z,1.90
2022-08-05T18:06:31.090Z,1.40
2022-08-05T18:08:58.568Z,1.97
2022-08-05T18:11:32.905Z,1.37
2022-08-05T18:14:03.429Z,1.00
2022-08-05T18:16:30.981Z,1.20
2022-08-05T18:18:57.880Z,1.50
2022-08-05T18:21:26.514Z,1.20
2022-08-05T18:23:55.497Z,2.57
2022-08-05T18:26:27.360Z,1.73
2022-08-05T18:28:57.180Z,1.40
2022-08-05T18:31:24.342Z,1.57
2022-08-05T18:33:52.363Z,3.33
2022-08-05T18:36:19.450Z,2.00
2022-08-05T18:38:46.677Z,2.40
2022-08-05T18:41:58.088Z,2.17
2022-08-05T18:44:05.520Z,3.97
2022-08-05T18:46:33.630Z,2.83
2022-08-05T18:49:21.018Z,4.00
2022-08-05T18:52:08.976Z,1.60
2022-08-05T18:54:41.334Z,1.83
2022-08-05T18:57:15.298Z,1.63
2022-08-05T19:00:02.566Z,1.73
2022-08-05T19:02:29.656Z,1.33
2022-08-05T19:05:03.207Z,1.43
2022-08-05T19:07:47.986Z,1.50
2022-08-05T19:10:28.243Z,2.07
2022-08-05T19:12:58.418Z,1.00
2022-08-05T19:16:00.235Z,1.50
2022-08-05T19:18:21.871Z,2.23
2022-08-05T19:20:53.699Z,1.70
2022-08-05T19:23:22.369Z,1.50
2022-08-05T19:26:08.422Z,1.73
2022-08-05T19:28:41.818Z,1.40
2022-08-05T19:31:13.660Z,1.50
2022-08-05T19:33:48.566Z,1.83
2022-08-05T19:36:26.919Z,1.30
2022-08-05T19:39:01.208Z,1.80
2022-08-05T19:41:57.984Z,1.97
2022-08-05T19:44:17.476Z,1.67
2022-08-05T19:46:45.611Z,2.17
2022-08-05T19:49:16.571Z,1.80
2022-08-05T19:52:05.948Z,1.60
2022-08-05T19:54:32.910Z,1.63
2022-08-05T19:57:06.540Z,2.13
2022-08-05T19:59:56.355Z,2.93
2022-08-05T20:02:26.207Z,2.80
2022-08-05T20:04:55.403Z,2.07
2022-08-05T20:07:46.205Z,1.83
2022-08-05T20:10:13.797Z,2.50
2022-08-05T20:12:47.929Z,2.00
2022-08-05T20:15:48.603Z,2.40
2022-08-05T20:18:10.441Z,1.77
2022-08-05T20:20:55.154Z,2.87
2022-08-05T20:23:39.505Z,2.07
2022-08-05T20:26:16.168Z,2.03
2022-08-05T20:28:48.664Z,2.73
2022-08-05T20:31:16.853Z,1.80
2022-08-05T20:33:44.838Z,2.70
2022-08-05T20:36:12.268Z,3.00
2022-08-05T20:38:53.589Z,2.53
2022-08-05T20:41:27.436Z,3.27
2022-08-05T20:44:18.788Z,2.67
2022-08-05T20:46:59.117Z,1.93
2022-08-05T20:49:27.098Z,1.93
2022-08-05T20:51:55.222Z,1.90
2022-08-05T20:54:25.337Z,1.83
2022-08-05T20:56:52.959Z,1.97
2022-08-05T20:59:26.403Z,1.60
2022-08-05T21:01:57.203Z,2.00
2022-08-05T21:04:27.031Z,2.00
2022-08-05T21:06:54.797Z,1.83
2022-08-05T21:09:22.822Z,3.17
2022-08-05T21:12:09.147Z,2.30
2022-08-05T21:14:38.194Z,2.47
2022-08-05T21:17:05.868Z,2.00
2022-08-05T21:19:46.611Z,2.90
2022-08-05T21:22:18.250Z,1.87
2022-08-05T21:24:49.043Z,2.50
2022-08-05T21:27:20.596Z,2.87
2022-08-05T21:29:54.033Z,2.47
2022-08-05T21:32:27.472Z,2.83
2022-08-05T21:35:08.724Z,2.40
2022-08-05T21:37:47.455Z,2.20
2022-08-05T21:40:24.196Z,2.60
2022-08-05T21:42:52.987Z,3.13
2022-08-05T21:45:24.880Z,3.33
2022-08-05T21:48:10.831Z,3.03
2022-08-05T21:50:41.845Z,3.57
2022-08-05T21:53:20.071Z,4.03
2022-08-05T21:56:05.638Z,4.33
2022-08-05T21:58:34.084Z,5.47
2022-08-05T22:01:04.741Z,4.83
2022-08-05T22:03:51.735Z,6.63
2022-08-05T22:06:22.362Z,6.50
2022-08-05T22:08:51.624Z,4.33
2022-08-05T22:11:34.893Z,5.20
2022-08-05T22:14:19.870Z,5.47
2022-08-05T22:16:55.895Z,5.57
2022-08-05T22:20:03.522Z,5.00
2022-08-05T22:22:11.665Z,7.13
2022-08-05T22:24:57.711Z,5.23
2022-08-05T22:28:08.571Z,4.20
2022-08-05T22:30:34.881Z,5.50
2022-08-05T22:33:03.540Z,5.43
2022-08-05T22:35:38.570Z,4.67
2022-08-05T22:38:15.497Z,3.27
2022-08-05T22:40:42.361Z,3.97
2022-08-05T22:43:36.674Z,3.23
2022-08-05T22:46:11.875Z,2.33
2022-08-05T22:48:40.627Z,2.63
2022-08-05T22:51:08.007Z,2.67
2022-08-05T22:53:42.605Z,2.83
2022-08-05T22:56:17.407Z,4.23
2022-08-05T22:59:00.078Z,3.77
2022-08-05T23:02:04.578Z,3.50
2022-08-05T23:04:16.727Z,2.97
2022-08-05T23:06:43.557Z,2.33
2022-08-05T23:09:27.245Z,3.23
2022-08-05T23:11:59.317Z,3.20
2022-08-05T23:14:32.259Z,4.30
2022-08-05T23:17:24.593Z,3.50
2022-08-05T23:20:02.780Z,2.33
2022-08-05T23:22:30.832Z,3.93
2022-08-05T23:24:58.190Z,4.83
2022-08-05T23:27:31.248Z,6.37
2022-08-05T23:30:10.734Z,4.17
2022-08-05T23:32:37.820Z,3.87
2022-08-05T23:35:12.130Z,6.60
2022-08-05T23:37:39.081Z,3.53
2022-08-05T23:40:07.773Z,3.30
2022-08-05T23:42:37.348Z,2.60
2022-08-05T23:45:14.379Z,3.97
2022-08-05T23:47:47.687Z,3.07
2022-08-05T23:50:15.264Z,3.63
2022-08-05T23:52:49.970Z,2.37
2022-08-05T23:55:19.065Z,1.63
2022-08-05T23:57:48.892Z,4.20
